Time;durP1;ratioP1;P1;durP2;ratioP2;P2;SDS_P1;SDS_P2;PMS_P1;PMS_P2;Temp;Humidity;BMP_temperature;BMP_pressure;BME280_temperature;BME280_humidity;BME280_pressure;Samples;Min_cycle;Max_cycle;Signal;HPM_P1;HPM_P2
2023/08/13 00:01:05;;;;;;;8.35;2.60;;;;;;;15.47;95.49;101671.53;4918876;29;20099;-81
2023/08/13 00:03:33;;;;;;;6.97;2.75;;;;;;;15.66;95.18;101707.56;4916796;29;20032;-81
2023/08/13 00:05:58;;;;;;;9.52;2.53;;;;;;;15.29;95.46;101640.75;4918587;29;20493;-81
2023/08/13 00:08:23;;;;;;;10.45;3.15;;;;;;;15.45;95.82;101672.59;4918495;29;20035;-81
2023/08/13 00:10:49;;;;;;;11.10;3.05;;;;;;;15.46;96.44;101682.88;4918708;29;20083;-81
2023/08/13 00:13:14;;;;;;;7.60;2.65;;;;;;;14.85;95.85;101575.28;4916900;29;20040;-80
2023/08/13 00:15:40;;;;;;;11.00;3.20;;;;;;;15.43;96.16;101674.44;4918454;29;20103;-80
2023/08/13 00:18:06;;;;;;;14.93;3.05;;;;;;;15.42;96.42;101676.22;4918505;29;20032;-80
2023/08/13 00:20:46;;;;;;;9.40;3.00;;;;;;;15.54;96.30;101699.75;4918550;29;20382;-80
2023/08/13 00:23:17;;;;;;;11.00;3.15;;;;;;;15.42;96.88;101677.97;4918436;29;20050;-80
2023/08/13 00:25:42;;;;;;;10.50;3.08;;;;;;;14.99;96.51;101608.13;4917136;29;20036;-81
2023/08/13 00:28:08;;;;;;;10.35;2.55;;;;;;;14.74;97.25;101566.53;4918361;29;20273;-80
2023/08/13 00:30:34;;;;;;;10.32;2.67;;;;;;;15.46;97.33;101697.66;4918087;29;20499;-80
2023/08/13 00:33:00;;;;;;;9.55;2.97;;;;;;;15.24;98.53;101661.03;4918472;29;20035;-80
2023/08/13 00:35:25;;;;;;;11.68;3.17;;;;;;;15.34;98.00;101681.13;4918391;29;20430;-80
2023/08/13 00:37:50;;;;;;;12.98;3.25;;;;;;;15.36;98.26;101688.84;4970621;23;20432;-80
2023/08/13 00:40:16;;;;;;;15.25;3.58;;;;;;;15.27;98.57;101674.69;4917875;29;20201;-80
2023/08/13 00:42:41;;;;;;;9.23;3.03;;;;;;;15.33;99.20;101689.84;4918190;29;20028;-80
2023/08/13 00:45:07;;;;;;;12.13;2.80;;;;;;;14.86;99.39;101609.91;4917983;29;20031;-80
2023/08/13 00:47:34;;;;;;;9.65;3.00;;;;;;;15.05;99.59;101646.72;4917939;29;20048;-81
2023/08/13 00:49:59;;;;;;;9.77;2.97;;;;;;;14.91;99.77;101626.84;4917762;29;20020;-81
2023/08/13 00:52:25;;;;;;;10.07;3.42;;;;;;;15.18;100.00;101676.16;4917850;29;20043;-81
2023/08/13 00:54:53;;;;;;;10.02;2.97;;;;;;;15.22;100.00;101689.78;4917879;29;20080;-80
2023/08/13 00:57:21;;;;;;;8.50;3.42;;;;;;;15.10;100.00;101667.19;4917832;29;20030;-80
2023/08/13 00:59:47;;;;;;;9.88;3.13;;;;;;;15.13;99.93;101674.78;4917779;29;20039;-80
2023/08/13 01:02:13;;;;;;;9.55;2.80;;;;;;;15.17;100.00;101674.50;4917890;29;20032;-81
2023/08/13 01:04:38;;;;;;;10.15;3.15;;;;;;;15.13;100.00;101677.38;4917911;29;20032;-80
2023/08/13 01:07:11;;;;;;;8.05;3.00;;;;;;;14.88;100.00;101640.06;4917655;29;20028;-80
2023/08/13 01:09:39;;;;;;;10.93;3.17;;;;;;;15.10;100.00;101681.03;4917687;29;20043;-80
2023/08/13 01:12:18;;;;;;;10.73;3.50;;;;;;;14.92;100.00;101653.69;4917545;29;20099;-80
2023/08/13 01:14:53;;;;;;;11.15;3.08;;;;;;;14.98;100.00;101673.25;4916540;29;20035;-80
2023/08/13 01:17:22;;;;;;;10.75;2.80;;;;;;;15.05;100.00;101682.31;4916266;29;20020;-80
2023/08/13 01:19:48;;;;;;;9.70;3.08;;;;;;;14.87;100.00;101656.59;4917487;29;20493;-81
2023/08/13 01:22:13;;;;;;;10.13;3.28;;;;;;;15.01;100.00;101683.44;4916677;29;20032;-81
2023/08/13 01:24:39;;;;;;;11.90;3.47;;;;;;;14.99;100.00;101680.13;4916798;29;20024;-80
2023/08/13 01:27:26;;;;;;;9.25;3.47;;;;;;;14.83;100.00;101665.53;4917117;29;20096;-80
2023/08/13 01:30:17;;;;;;;12.52;3.20;;;;;;;14.94;100.00;101685.63;4917315;29;20502;-80
2023/08/13 01:32:54;;;;;;;13.13;3.40;;;;;;;14.80;100.00;101672.72;4859108;29;20037;-80
2023/08/13 01:35:22;;;;;;;13.70;3.30;;;;;;;14.86;100.00;101683.56;4858820;29;20041;-80
2023/08/13 01:37:49;;;;;;;9.05;2.92;;;;;;;14.60;100.00;101650.66;4858713;29;20049;-81
2023/08/13 01:40:15;;;;;;;10.65;3.67;;;;;;;14.82;100.00;101687.28;4858892;29;20033;-80
2023/08/13 01:42:40;;;;;;;11.95;3.20;;;;;;;14.75;100.00;101677.38;4858853;29;20044;-81
2023/08/13 01:45:06;;;;;;;12.68;3.00;;;;;;;14.64;100.00;101659.91;4858854;29;20048;-82
2023/08/13 01:47:31;;;;;;;9.90;3.53;;;;;;;14.78;100.00;101688.44;4858685;29;20045;-81
2023/08/13 01:49:56;;;;;;;12.68;3.08;;;;;;;14.73;100.00;101680.09;4858519;29;20166;-81
2023/08/13 01:52:22;;;;;;;11.27;3.30;;;;;;;14.76;100.00;101689.47;4842940;29;20435;-80
2023/08/13 01:54:47;;;;;;;9.75;2.80;;;;;;;14.75;100.00;101695.59;4858614;29;20097;-80
2023/08/13 01:57:12;;;;;;;10.25;3.97;;;;;;;14.73;100.00;101700.06;4858702;29;20049;-80
2023/08/13 01:59:37;;;;;;;13.27;3.72;;;;;;;14.71;100.00;101701.94;4858595;29;20037;-80
2023/08/13 02:02:03;;;;;;;13.00;3.45;;;;;;;14.69;100.00;101699.44;4858648;29;20033;-80
2023/08/13 02:04:28;;;;;;;10.40;3.15;;;;;;;14.67;100.00;101697.88;4843069;29;20045;-80
2023/08/13 02:06:54;;;;;;;9.75;3.03;;;;;;;14.65;100.00;101695.41;4882828;23;20056;-80
2023/08/13 02:09:25;;;;;;;8.82;3.28;;;;;;;13.85;100.00;101567.22;4916207;29;20067;-80
2023/08/13 02:11:50;;;;;;;;;;;;;;;14.62;100.00;101688.59;4899883;29;20036;-80
2023/08/13 02:14:28;;;;;;;10.77;3.22;;;;;;;13.33;100.00;101484.97;4916843;29;19947;-80
2023/08/13 02:16:53;;;;;;;8.27;3.15;;;;;;;14.40;100.00;101658.91;4916649;29;20043;-80
2023/08/13 02:19:19;;;;;;;8.95;3.00;;;;;;;13.99;100.00;101594.91;4916209;29;20474;-80
2023/08/13 02:21:44;;;;;;;12.05;3.17;;;;;;;14.24;100.00;101641.72;4916410;29;20036;-80
2023/08/13 02:24:09;;;;;;;10.43;3.17;;;;;;;14.49;100.00;101679.97;4916010;29;20096;-80
2023/08/13 02:26:35;;;;;;;9.00;2.97;;;;;;;14.48;100.00;101685.25;4915977;29;20024;-80
2023/08/13 02:29:00;;;;;;;13.13;3.45;;;;;;;14.42;100.00;101683.84;4916182;29;20028;-80
2023/08/13 02:31:25;;;;;;;12.32;3.35;;;;;;;14.42;100.00;101683.84;4916241;29;20043;-81
2023/08/13 02:33:51;;;;;;;14.07;3.60;;;;;;;14.38;100.00;101681.56;4916208;29;20032;-81
2023/08/13 02:36:16;;;;;;;11.05;3.40;;;;;;;14.36;100.00;101679.06;4916352;29;20048;-80
2023/08/13 02:38:41;;;;;;;11.30;3.50;;;;;;;14.33;100.00;101674.06;4916279;29;20029;-81
2023/08/13 02:41:07;;;;;;;13.77;3.75;;;;;;;14.22;100.00;101659.19;4916068;29;20063;-81
2023/08/13 02:43:50;;;;;;;9.27;3.30;;;;;;;12.98;100.00;101462.97;4921492;23;20064;-81
2023/08/13 02:46:15;;;;;;;13.20;3.15;;;;;;;14.29;100.00;101665.66;4914788;29;20438;-81
2023/08/13 02:48:41;;;;;;;10.23;2.83;;;;;;;14.13;100.00;101651.16;4916215;29;20075;-81
2023/08/13 02:51:06;;;;;;;9.50;3.20;;;;;;;13.56;100.00;101555.28;4916345;29;20036;-81
2023/08/13 02:53:31;;;;;;;9.00;2.90;;;;;;;13.92;100.00;101625.63;4916169;29;20389;-81
2023/08/13 02:55:56;;;;;;;10.38;3.15;;;;;;;14.22;100.00;101669.56;4915998;29;20035;-81
2023/08/13 02:58:22;;;;;;;9.20;2.60;;;;;;;14.05;100.00;101634.28;4916207;29;20028;-81
2023/08/13 03:00:47;;;;;;;9.93;3.08;;;;;;;13.98;100.00;101630.44;4916033;29;20025;-80
2023/08/13 03:03:12;;;;;;;13.63;3.10;;;;;;;14.20;100.00;101668.00;4916400;29;20474;-81
2023/08/13 03:05:38;;;;;;;10.50;3.00;;;;;;;13.97;100.00;101631.38;4916177;29;20393;-81
2023/08/13 03:08:03;;;;;;;12.15;3.33;;;;;;;14.12;100.00;101668.50;4915825;29;20119;-81
2023/08/13 03:10:29;;;;;;;11.27;3.47;;;;;;;14.10;100.00;101669.53;4915854;29;20032;-81
2023/08/13 03:12:54;;;;;;;12.63;3.17;;;;;;;14.08;100.00;101672.22;4916146;29;20028;-81
2023/08/13 03:15:20;;;;;;;10.40;2.85;;;;;;;14.04;100.00;101671.56;4915814;29;20028;-81
2023/08/13 03:17:45;;;;;;;12.63;3.30;;;;;;;13.97;100.00;101652.16;4916119;29;20040;-80
2023/08/13 03:20:10;;;;;;;12.32;3.30;;;;;;;13.79;100.00;101632.53;4916006;29;20035;-81
2023/08/13 03:22:37;;;;;;;11.30;3.35;;;;;;;13.89;100.00;101653.56;4915865;29;20032;-81
2023/08/13 03:25:03;;;;;;;11.75;3.20;;;;;;;13.80;100.00;101648.94;4915672;29;20020;-81
2023/08/13 03:27:28;;;;;;;11.13;3.17;;;;;;;13.92;100.00;101674.13;4916102;29;20482;-81
2023/08/13 03:29:54;;;;;;;8.38;2.75;;;;;;;13.89;100.00;101671.75;4915987;29;20077;-80
2023/08/13 03:32:20;;;;;;;9.65;2.75;;;;;;;13.84;100.00;101669.41;4915898;29;20024;-81
2023/08/13 03:34:45;;;;;;;8.95;3.60;;;;;;;13.81;100.00;101668.78;4916035;29;20363;-81
2023/08/13 03:37:10;;;;;;;13.18;2.83;;;;;;;13.58;100.00;101639.09;4915907;29;20111;-81
2023/08/13 03:39:36;;;;;;;9.50;2.95;;;;;;;13.71;100.00;101658.97;4918881;29;20044;-81
2023/08/13 03:42:01;;;;;;;11.35;3.05;;;;;;;13.60;100.00;101647.63;4918815;29;20032;-81
2023/08/13 03:44:26;;;;;;;10.48;2.85;;;;;;;13.67;100.00;101665.31;4919085;29;20035;-81
2023/08/13 03:46:55;;;;;;;12.90;3.08;;;;;;;13.15;100.00;101597.59;4925660;23;20392;-81
2023/08/13 03:49:33;;;;;;;10.60;2.95;;;;;;;13.56;100.00;101656.50;4919217;29;20036;-81
2023/08/13 03:52:03;;;;;;;6.47;2.58;;;;;;;13.05;100.00;101583.53;4918945;29;20385;-81
2023/08/13 03:54:30;;;;;;;7.00;2.80;;;;;;;12.83;100.00;101558.91;4902199;29;20074;-81
2023/08/13 03:56:55;;;;;;;11.55;3.00;;;;;;;12.22;100.00;101455.56;4918667;29;20427;-81
2023/08/13 03:59:21;;;;;;;7.50;2.60;;;;;;;12.55;100.00;101514.88;4918882;29;20076;-81
2023/08/13 04:01:46;;;;;;;8.40;2.85;;;;;;;13.29;100.00;101644.31;4918990;29;20056;-81
2023/08/13 04:04:11;;;;;;;6.88;3.00;;;;;;;13.35;100.00;101661.25;4901901;29;20024;-80
2023/08/13 04:06:37;;;;;;;10.02;3.08;;;;;;;13.42;100.00;101667.75;4918690;29;20052;-81
2023/08/13 04:09:20;;;;;;;9.25;3.22;;;;;;;12.66;100.00;101543.56;4924297;23;20103;-81
2023/08/13 04:11:46;;;;;;;10.07;3.20;;;;;;;12.59;100.00;101537.94;4918513;29;20040;-81
2023/08/13 04:14:20;;;;;;;9.70;2.88;;;;;;;13.42;100.00;101671.16;4918442;29;20035;-80
2023/08/13 04:16:54;;;;;;;10.68;3.30;;;;;;;12.70;100.00;101549.41;4918573;29;20047;-81
2023/08/13 04:19:20;;;;;;;12.05;3.10;;;;;;;13.51;100.00;101676.72;4916851;29;20387;-81
2023/08/13 04:21:45;;;;;;;8.10;3.30;;;;;;;13.44;100.00;101653.75;4918816;29;20035;-81
2023/08/13 04:24:10;;;;;;;11.77;3.10;;;;;;;13.54;100.00;101663.56;4901053;29;20043;-81
2023/08/13 04:26:36;;;;;;;11.45;3.10;;;;;;;13.63;100.00;101662.97;4918815;23;20060;-81
2023/08/13 04:29:01;;;;;;;10.60;3.30;;;;;;;13.61;100.00;101660.50;4899484;29;20052;-81
2023/08/13 04:31:26;;;;;;;9.75;3.40;;;;;;;13.76;100.00;101680.31;4899389;29;20444;-81
2023/08/13 04:33:52;;;;;;;10.57;3.35;;;;;;;13.77;100.00;101671.59;4899499;29;20031;-81
2023/08/13 04:42:47;;;;;;;9.00;3.17;;;;;;;12.78;100.00;101457.31;5073870;23;20055;-80
2023/08/13 04:45:25;;;;;;;10.68;3.38;;;;;;;12.91;100.00;101465.97;4918175;29;20036;-79
2023/08/13 04:47:56;;;;;;;11.68;3.08;;;;;;;12.89;100.00;101460.06;4917791;29;20097;-80
2023/08/13 04:56:59;;;;;;;13.45;3.65;;;;;;;13.92;100.00;101602.25;5158476;23;20462;-79
2023/08/13 05:06:10;;;;;;;8.60;3.20;;;;;;;14.28;100.00;101608.59;4917720;29;20529;-80
2023/08/13 05:15:28;;;;;;;;;;;;;;;15.21;100.00;101682.91;4918178;29;20087;-80
2023/08/13 05:18:03;;;;;;;9.07;3.63;;;;;;;15.10;100.00;101647.22;4917472;29;20025;-79
2023/08/13 05:24:00;;;;;;;8.88;3.22;;;;;;;14.82;100.00;101592.84;4859607;29;20554;-79
2023/08/13 05:26:40;;;;;;;13.65;3.40;;;;;;;14.45;100.00;101522.56;4859199;29;20037;-79
2023/08/13 05:29:34;;;;;;;9.75;3.15;;;;;;;15.47;100.00;101681.09;4859176;29;20060;-79
2023/08/13 05:37:56;;;;;;;9.73;3.22;;;;;;;14.81;100.00;101563.41;5193082;23;20067;-78
2023/08/13 05:40:21;;;;;;;9.55;3.03;;;;;;;15.57;100.00;101686.50;4917026;29;20036;-79
2023/08/13 05:42:47;;;;;;;12.85;3.70;;;;;;;15.49;100.00;101669.66;4917022;29;20493;-79
2023/08/13 05:45:13;;;;;;;10.30;3.72;;;;;;;15.55;100.00;101664.97;4916922;29;20032;-79
2023/08/13 05:47:38;;;;;;;10.63;3.78;;;;;;;16.15;100.00;101695.41;4916583;29;20035;-79
2023/08/13 05:50:04;;;;;;;8.82;3.47;;;;;;;16.89;100.00;101699.44;4916571;29;20043;-79
2023/08/13 05:52:29;;;;;;;11.95;3.70;;;;;;;17.56;97.97;101696.84;4916868;29;20020;-79
2023/08/13 05:54:55;;;;;;;8.02;3.20;;;;;;;17.93;94.79;101671.28;4916872;29;20364;-79
2023/08/13 05:57:21;;;;;;;10.13;3.13;;;;;;;19.47;87.45;101705.47;4916689;29;20036;-79
2023/08/13 05:59:46;;;;;;;8.73;2.67;;;;;;;20.53;79.39;101701.34;4916763;29;20032;-79
2023/08/13 06:02:11;;;;;;;10.15;2.53;;;;;;;21.30;75.55;101700.34;4916083;29;20395;-79
2023/08/13 06:04:37;;;;;;;9.27;2.85;;;;;;;21.84;71.91;101704.75;4916477;29;20056;-79
2023/08/13 06:07:05;;;;;;;9.00;2.67;;;;;;;22.35;68.55;101711.19;4916573;29;20127;-79
2023/08/13 06:09:31;;;;;;;8.85;3.00;;;;;;;22.85;65.97;101708.78;4916534;29;20557;-79
2023/08/13 06:11:56;;;;;;;6.90;2.22;;;;;;;22.92;64.36;101668.66;4916527;29;20111;-79
2023/08/13 06:14:22;;;;;;;6.00;2.20;;;;;;;23.44;68.11;101711.53;4916444;29;20028;-80
2023/08/13 06:16:47;;;;;;;6.53;2.22;;;;;;;23.10;67.00;101688.66;4916339;29;20032;-80
2023/08/13 06:19:13;;;;;;;9.70;2.78;;;;;;;23.14;67.34;101708.44;4916231;29;20027;-80
2023/08/13 06:21:38;;;;;;;7.50;2.53;;;;;;;23.28;66.20;101722.00;4899685;29;20066;-80
2023/08/13 06:24:05;;;;;;;8.30;2.25;;;;;;;23.49;65.72;101698.69;4898899;29;20032;-80
2023/08/13 06:26:31;;;;;;;14.80;4.47;;;;;;;23.85;64.33;101723.06;4916577;29;20087;-80
2023/08/13 06:28:56;;;;;;;23.25;6.63;;;;;;;23.88;65.06;101714.00;4916282;29;20118;-80
2023/08/13 06:31:22;;;;;;;20.88;4.70;;;;;;;23.37;65.19;101702.59;4916220;29;20099;-79
2023/08/13 06:33:47;;;;;;;12.77;4.05;;;;;;;23.04;66.24;101689.28;4899355;29;20492;-80
2023/08/13 06:36:12;;;;;;;9.15;3.15;;;;;;;22.74;68.42;101706.38;4916469;29;20484;-78
2023/08/13 06:38:38;;;;;;;11.90;3.50;;;;;;;22.73;68.09;101709.16;4913407;29;20409;-79
2023/08/13 06:41:05;;;;;;;10.63;2.90;;;;;;;22.57;68.81;101712.50;4916749;29;20111;-80
2023/08/13 06:43:33;;;;;;;10.52;3.05;;;;;;;22.14;72.06;101703.59;4916170;29;20474;-78
2023/08/13 06:45:59;;;;;;;9.10;2.67;;;;;;;21.99;73.11;101711.16;4915897;29;20458;-76
2023/08/13 06:48:31;;;;;;;10.55;2.75;;;;;;;22.10;70.15;101698.78;4915887;29;20036;-77
2023/08/13 06:50:57;;;;;;;10.82;2.75;;;;;;;21.76;69.54;101696.78;4928199;29;20059;-80
2023/08/13 06:53:23;;;;;;;8.07;2.75;;;;;;;21.10;73.39;101681.19;4935384;29;20054;-79
2023/08/13 06:55:49;;;;;;;9.27;2.67;;;;;;;20.57;74.66;101685.22;4935230;29;20531;-78
2023/08/13 06:58:14;;;;;;;8.90;2.67;;;;;;;20.41;77.98;101692.78;4934674;29;20493;-78
2023/08/13 07:00:40;;;;;;;7.30;2.75;;;;;;;20.36;78.61;101707.28;4934805;29;20059;-78
2023/08/13 07:03:06;;;;;;;8.07;2.63;;;;;;;20.29;79.63;101699.97;4934768;29;20035;-80
2023/08/13 07:05:32;;;;;;;9.05;2.85;;;;;;;20.41;79.84;101707.69;4934795;29;20032;-79
2023/08/13 07:07:57;;;;;;;10.77;2.60;;;;;;;20.02;79.55;101640.34;4934723;29;20050;-78
2023/08/13 07:10:23;;;;;;;7.03;2.50;;;;;;;20.55;79.89;101704.66;4934830;29;20040;-79
2023/08/13 07:12:48;;;;;;;14.18;2.95;;;;;;;20.68;79.95;101701.75;4936978;29;20031;-78
2023/08/13 07:15:13;;;;;;;8.48;2.30;;;;;;;20.75;78.65;101705.50;4938415;29;20123;-79
2023/08/13 07:17:39;;;;;;;9.20;2.40;;;;;;;20.87;79.17;101704.34;4938564;29;20071;-78
2023/08/13 07:20:08;;;;;;;8.57;2.60;;;;;;;21.01;77.49;101705.69;4938235;29;20072;-80
2023/08/13 07:22:33;;;;;;;7.18;2.42;;;;;;;21.19;77.49;101706.59;4938449;29;20031;-78
2023/08/13 07:24:59;;;;;;;9.70;3.03;;;;;;;21.29;76.54;101699.53;4938181;29;20024;-79
2023/08/13 07:27:24;;;;;;;9.00;2.90;;;;;;;21.19;76.84;101667.19;4938173;29;20040;-79
2023/08/13 07:29:50;;;;;;;9.13;2.78;;;;;;;21.61;76.09;101695.63;4938296;29;20055;-76
2023/08/13 07:32:15;;;;;;;8.57;2.22;;;;;;;21.53;76.65;101677.13;4938193;29;20031;-76
2023/08/13 07:37:15;;;;;;;6.97;2.33;;;;;;;21.65;74.71;101682.06;4926158;23;20052;-80
2023/08/13 07:39:41;;;;;;;5.65;2.10;;;;;;;21.89;75.87;101707.75;4919455;29;20039;-80
2023/08/13 07:42:08;;;;;;;8.50;2.10;;;;;;;21.92;74.59;101704.81;4919235;29;20039;-81
2023/08/13 07:44:34;;;;;;;8.32;2.30;;;;;;;21.64;72.91;101679.56;4918688;29;20036;-81
2023/08/13 07:47:02;;;;;;;8.57;2.60;;;;;;;21.50;74.94;101643.25;4919010;29;20039;-81
2023/08/13 07:49:28;;;;;;;9.65;2.55;;;;;;;21.74;73.92;101677.72;4918735;29;20079;-81
2023/08/13 07:51:53;;;;;;;11.52;2.65;;;;;;;21.97;73.76;101699.13;4919178;29;20474;-81
2023/08/13 07:54:22;;;;;;;11.60;2.50;;;;;;;21.93;72.67;101680.19;4919051;29;20024;-82
2023/08/13 07:56:48;;;;;;;11.65;3.03;;;;;;;21.93;73.38;101695.16;4919199;29;20024;-80
2023/08/13 07:59:14;;;;;;;7.63;2.20;;;;;;;22.15;74.54;101701.81;4966986;23;20063;-81
2023/08/13 08:01:42;;;;;;;7.78;2.28;;;;;;;22.21;74.81;101703.81;4918846;29;20083;-81
2023/08/13 08:04:07;;;;;;;12.73;2.40;;;;;;;22.09;72.19;101670.81;4918138;29;20044;-80
2023/08/13 08:06:33;;;;;;;10.02;2.30;;;;;;;22.05;71.32;101649.22;4918419;29;20397;-80
2023/08/13 08:08:58;;;;;;;6.82;1.98;;;;;;;22.31;71.08;101681.69;4901662;29;20441;-80
2023/08/13 08:11:23;;;;;;;8.90;2.22;;;;;;;22.51;71.88;101690.22;4886194;29;20092;-79
2023/08/13 08:13:49;;;;;;;10.00;1.75;;;;;;;22.46;71.62;101699.59;4919013;29;20482;-80
2023/08/13 08:16:14;;;;;;;8.63;2.05;;;;;;;22.47;71.13;101693.34;4917184;29;20099;-80
2023/08/13 08:18:39;;;;;;;9.98;2.58;;;;;;;22.60;72.72;101688.50;4919126;29;20493;-80
2023/08/13 08:21:05;;;;;;;8.82;2.30;;;;;;;22.65;70.23;101688.88;4918555;29;20036;-81
2023/08/13 08:23:30;;;;;;;8.02;2.58;;;;;;;22.61;71.51;101688.38;4917915;29;20032;-79
2023/08/13 08:25:56;;;;;;;8.25;2.45;;;;;;;22.37;69.81;101679.44;4925790;29;20454;-80
2023/08/13 08:28:21;;;;;;;7.60;2.00;;;;;;;22.30;70.88;101661.63;4937510;29;20023;-81
2023/08/13 08:30:46;;;;;;;7.28;2.00;;;;;;;22.52;70.52;101694.53;4937142;29;20148;-79
2023/08/13 08:33:12;;;;;;;7.65;2.33;;;;;;;22.47;68.96;101675.75;4937350;29;20040;-81
2023/08/13 08:35:38;;;;;;;9.20;1.85;;;;;;;22.69;71.28;101695.47;4937196;29;20042;-82
2023/08/13 08:38:04;;;;;;;8.55;2.28;;;;;;;22.92;69.21;101697.63;4937295;29;20028;-79
2023/08/13 08:40:29;;;;;;;10.40;2.55;;;;;;;23.06;68.15;101682.06;4937345;29;20028;-82
2023/08/13 08:42:55;;;;;;;7.03;1.88;;;;;;;23.30;67.32;101694.50;4937217;29;20039;-83
2023/08/13 08:45:22;;;;;;;7.63;2.28;;;;;;;23.25;67.26;101690.69;4937205;29;20039;-83
2023/08/13 08:47:49;;;;;;;9.43;2.35;;;;;;;23.31;69.65;101683.00;4929149;29;20034;-82
2023/08/13 08:50:15;;;;;;;8.10;2.30;;;;;;;23.20;65.53;101688.53;4916925;29;20036;-82
2023/08/13 08:52:40;;;;;;;5.63;1.80;;;;;;;22.77;64.52;101656.03;4935889;29;20032;-82
2023/08/13 08:55:06;;;;;;;8.45;2.28;;;;;;;23.01;66.96;101686.13;4937018;29;20068;-81
2023/08/13 08:57:32;;;;;;;6.85;1.77;;;;;;;23.08;68.55;101692.44;4917402;29;20040;-84
2023/08/13 08:59:58;;;;;;;7.15;1.90;;;;;;;23.14;66.74;101691.81;4936593;29;20053;-84
2023/08/13 09:02:24;;;;;;;8.57;1.98;;;;;;;23.32;67.73;101687.28;4936763;29;20053;-85
2023/08/13 09:04:50;;;;;;;7.60;2.10;;;;;;;23.39;66.22;101685.63;4936850;29;20027;-84
2023/08/13 09:07:15;;;;;;;6.53;1.77;;;;;;;23.20;65.42;101646.38;4918762;29;20040;-83
2023/08/13 09:09:43;;;;;;;8.40;2.05;;;;;;;23.19;65.53;101640.28;4957537;23;20581;-81
2023/08/13 09:12:09;;;;;;;9.48;2.28;;;;;;;23.26;65.86;101637.84;4916941;29;20043;-82
2023/08/13 09:14:35;;;;;;;10.73;2.30;;;;;;;23.27;63.54;101676.38;4917624;29;20454;-83
2023/08/13 09:17:02;;;;;;;7.50;2.38;;;;;;;22.76;64.13;101633.31;4915254;29;20040;-84
2023/08/13 09:19:28;;;;;;;5.15;1.55;;;;;;;22.85;66.04;101671.91;4917126;29;20099;-81
2023/08/13 09:21:56;;;;;;;8.80;2.22;;;;;;;22.45;66.86;101617.16;4915907;29;20119;-83
2023/08/13 09:24:34;;;;;;;9.85;2.53;;;;;;;22.73;67.05;101664.41;4916440;29;20032;-84
2023/08/13 09:27:03;;;;;;;7.18;1.88;;;;;;;22.72;66.19;101657.50;4917235;29;20474;-83
2023/08/13 09:29:30;;;;;;;7.93;2.25;;;;;;;22.83;68.16;101657.22;4917317;29;20164;-83
2023/08/13 09:32:02;;;;;;;10.57;2.47;;;;;;;23.03;66.57;101653.41;4916967;29;20035;-84
2023/08/13 09:34:34;;;;;;;8.32;1.90;;;;;;;23.17;67.55;101652.78;4916890;29;20028;-84
2023/08/13 09:37:00;;;;;;;9.20;2.75;;;;;;;23.26;63.75;101647.56;4916241;29;20057;-82
2023/08/13 09:39:28;;;;;;;7.07;2.03;;;;;;;23.12;63.29;101620.00;4916964;29;20028;-84
2023/08/13 09:41:54;;;;;;;6.50;1.83;;;;;;;23.45;66.18;101647.28;4917206;29;20028;-85
2023/08/13 09:44:21;;;;;;;5.70;1.83;;;;;;;23.16;65.45;101600.25;4917072;29;20122;-84
2023/08/13 09:46:54;;;;;;;8.25;2.35;;;;;;;23.17;63.05;101594.00;4916781;29;20107;-85
2023/08/13 09:49:27;;;;;;;10.52;2.67;;;;;;;23.30;63.65;101636.50;4916738;29;20470;-84
2023/08/13 09:51:54;;;;;;;6.75;2.00;;;;;;;23.25;65.31;101617.75;4917121;29;20035;-85
2023/08/13 09:54:47;;;;;;;9.18;2.20;;;;;;;23.28;65.27;101632.41;4916968;29;20398;-86
2023/08/13 09:57:36;;;;;;;8.45;2.25;;;;;;;22.08;65.23;101446.41;4923141;23;20414;-84
2023/08/13 10:00:10;;;;;;;9.20;2.42;;;;;;;22.42;65.16;101464.84;4900098;29;20367;-85
2023/08/13 10:03:06;;;;;;;7.82;2.33;;;;;;;23.69;63.70;101628.88;4916320;29;20457;-82
2023/08/13 10:05:42;;;;;;;6.60;2.20;;;;;;;22.54;60.31;101405.66;4916750;29;20040;-82
2023/08/13 10:08:12;;;;;;;6.35;1.70;;;;;;;22.69;59.92;101439.25;4916406;29;20443;-85
2023/08/13 10:10:38;;;;;;;7.45;2.05;;;;;;;23.39;60.93;101555.66;4916864;29;20436;-81
2023/08/13 10:13:04;;;;;;;10.02;2.50;;;;;;;23.65;61.77;101595.94;4916452;29;20028;-79
2023/08/13 10:15:32;;;;;;;6.13;1.85;;;;;;;23.92;61.26;101618.53;4916611;29;20474;-79
2023/08/13 10:17:58;;;;;;;7.97;2.53;;;;;;;23.82;63.32;101609.97;4916261;29;20409;-83
2023/08/13 10:20:25;;;;;;;8.05;1.85;;;;;;;23.70;60.21;101617.38;4916530;29;20466;-84
2023/08/13 10:22:52;;;;;;;7.57;2.03;;;;;;;23.73;62.62;101617.03;4916757;29;20028;-91
2023/08/13 10:25:33;;;;;;;7.10;1.92;;;;;;;23.88;61.99;101619.03;4916506;29;20020;-88
2023/08/13 10:28:17;;;;;;;8.43;2.20;;;;;;;23.54;60.91;101559.31;4969163;23;20007;-91
2023/08/13 10:30:48;;;;;;;7.28;2.33;;;;;;;23.05;60.15;101467.00;4916022;29;20036;-88
2023/08/13 10:33:14;;;;;;;7.78;1.98;;;;;;;22.77;59.24;101436.63;4916156;29;20453;-87
2023/08/13 10:38:10;;;;;;;8.48;1.92;;;;;;;23.78;59.81;101616.53;4922451;23;20056;-89
2023/08/13 10:40:41;;;;;;;;;;;;;;;23.92;60.55;101617.72;4916663;29;20048;-85
2023/08/13 10:46:19;;;;;;;9.90;2.60;;;;;;;22.43;61.32;101473.56;4916122;29;20047;-88
2023/08/13 10:48:51;;;;;;;8.52;2.22;;;;;;;22.42;63.61;101450.84;4920092;29;20406;-88
2023/08/13 10:51:23;;;;;;;7.85;2.58;;;;;;;22.68;63.27;101445.50;4919199;29;20040;-89
2023/08/13 10:53:58;;;;;;;9.43;2.30;;;;;;;23.12;62.07;101486.47;4920516;29;20020;-86
2023/08/13 10:56:23;;;;;;;7.22;2.17;;;;;;;22.87;60.55;101440.81;4920078;29;20040;-87
2023/08/13 10:59:07;;;;;;;8.18;2.25;;;;;;;23.70;62.20;101535.63;4919740;29;20140;-86
2023/08/13 11:02:21;;;;;;;7.78;2.15;;;;;;;24.20;61.64;101589.19;4920305;29;20028;-87
2023/08/13 11:04:47;;;;;;;10.23;2.13;;;;;;;23.59;59.96;101506.09;4901207;29;20036;-88
2023/08/13 11:07:25;;;;;;;9.02;2.40;;;;;;;24.17;63.83;101600.88;4899487;29;20044;-88
2023/08/13 11:10:05;;;;;;;8.20;2.45;;;;;;;23.74;60.54;101538.75;4900813;29;20025;-89
2023/08/13 11:12:32;;;;;;;9.38;2.35;;;;;;;23.00;60.07;101419.25;4900979;29;20115;-90
2023/08/13 11:15:10;;;;;;;9.68;2.30;;;;;;;24.29;60.18;101589.00;4901154;29;20035;-88
2023/08/13 11:17:49;;;;;;;8.20;2.30;;;;;;;24.22;60.47;101585.38;4901336;29;20025;-91
2023/08/13 11:20:18;;;;;;;9.65;2.35;;;;;;;23.21;61.51;101425.88;4900901;29;20102;-90
2023/08/13 11:23:03;;;;;;;7.47;2.45;;;;;;;23.46;60.29;101446.78;4901624;29;20029;-90
2023/08/13 11:25:32;;;;;;;7.18;2.00;;;;;;;23.39;58.65;101418.59;4900852;29;20044;-89
2023/08/13 11:27:59;;;;;;;10.73;2.95;;;;;;;23.96;59.24;101510.88;4900977;29;20088;-93
2023/08/13 11:30:38;;;;;;;7.65;2.15;;;;;;;24.26;58.97;101533.06;4900900;29;20105;-82
2023/08/13 11:33:07;;;;;;;6.80;2.00;;;;;;;23.63;58.71;101442.34;4900348;29;20057;-82
2023/08/13 11:35:33;;;;;;;6.05;2.13;;;;;;;23.70;60.66;101429.31;4883603;29;20376;-88
2023/08/13 11:37:58;;;;;;;8.18;2.22;;;;;;;23.73;57.44;101436.88;4899959;29;20056;-83
2023/08/13 11:40:24;;;;;;;8.43;2.42;;;;;;;24.78;58.72;101598.63;4900353;29;20064;-81
2023/08/13 11:42:57;;;;;;;8.85;2.88;;;;;;;23.87;56.31;101461.75;4900249;29;20025;-82
2023/08/13 11:45:24;;;;;;;8.57;2.72;;;;;;;24.92;57.25;101594.44;4900589;29;20033;-81
2023/08/13 11:47:51;;;;;;;7.93;2.30;;;;;;;24.87;56.90;101577.28;4900048;29;20033;-81
2023/08/13 11:50:21;;;;;;;9.80;2.15;;;;;;;24.88;56.78;101586.88;4900128;29;20494;-81
2023/08/13 11:53:09;;;;;;;7.10;2.05;;;;;;;24.81;58.19;101556.03;4900270;29;20061;-81
2023/08/13 11:55:37;;;;;;;8.35;2.47;;;;;;;25.12;59.25;101561.34;4900121;29;20034;-82
2023/08/13 11:58:02;;;;;;;7.68;2.58;;;;;;;25.28;56.09;101579.75;4899684;29;20035;-82
2023/08/13 12:00:28;;;;;;;8.93;2.20;;;;;;;25.22;57.64;101556.66;4899667;29;20399;-82
2023/08/13 12:02:55;;;;;;;7.78;2.20;;;;;;;25.26;54.30;101579.09;4899924;29;20382;-81
2023/08/13 12:05:32;;;;;;;8.73;2.30;;;;;;;25.22;54.28;101572.50;4899937;29;20036;-81
2023/08/13 12:08:01;;;;;;;9.93;2.72;;;;;;;25.38;56.02;101579.53;4899644;29;20504;-81